Time;durP1;ratioP1;P1;durP2;ratioP2;P2;SDS_P1;SDS_P2;PMS_P1;PMS_P2;Temp;Humidity;BMP_temperature;BMP_pressure;BME280_temperature;BME280_humidity;BME280_pressure;Samples;Min_cycle;Max_cycle;Signal;HPM_P1;HPM_P2
2023/03/04 00:01:49;;;;;;;;;;;23.90;79.60;;;;;;6303353;22;19914;-79
2023/03/04 00:04:16;;;;;;;;;;;24.00;78.80;;;;;;6303309;22;19910;-80
2023/03/04 00:06:43;;;;;;;;;;;24.10;78.20;;;;;;6303267;22;19903;-81
2023/03/04 00:09:09;;;;;;;;;;;24.20;78.80;;;;;;6303713;22;19937;-81
2023/03/04 00:11:36;;;;;;;;;;;24.20;77.90;;;;;;6303217;22;19981;-77
2023/03/04 00:14:03;;;;;;;;;;;24.20;75.90;;;;;;6303279;22;20298;-77
2023/03/04 00:16:29;;;;;;;;;;;24.20;75.80;;;;;;6303254;22;19915;-76
2023/03/04 00:18:56;;;;;;;;;;;24.20;77.40;;;;;;6303156;22;20226;-74
2023/03/04 00:21:23;;;;;;;;;;;24.10;72.50;;;;;;6302468;22;19918;-73
2023/03/04 00:23:50;;;;;;;;;;;24.20;75.50;;;;;;6303322;22;19910;-73
2023/03/04 00:26:16;;;;;;;;;;;24.30;75.30;;;;;;6275931;22;19991;-74
2023/03/04 00:28:43;;;;;;;;;;;24.30;71.10;;;;;;6302525;22;19990;-74
2023/03/04 00:31:10;;;;;;;;;;;24.30;73.00;;;;;;6275883;22;19907;-75
2023/03/04 00:33:37;;;;;;;;;;;24.30;73.60;;;;;;6274848;22;19903;-75
2023/03/04 00:36:04;;;;;;;;;;;24.40;73.90;;;;;;6302958;22;20242;-76
2023/03/04 00:38:31;;;;;;;;;;;24.40;72.00;;;;;;6303125;22;19935;-78
2023/03/04 00:40:57;;;;;;;;;;;24.50;74.70;;;;;;6300413;22;20330;-77
2023/03/04 00:43:24;;;;;;;;;;;24.50;73.40;;;;;;6303577;22;19911;-77
2023/03/04 00:45:51;;;;;;;;;;;24.60;72.70;;;;;;6303488;22;20338;-77
2023/03/04 00:48:17;;;;;;;;;;;24.60;71.20;;;;;;6302975;22;20373;-77
2023/03/04 00:50:44;;;;;;;;;;;24.70;73.10;;;;;;6275489;22;20342;-75
2023/03/04 00:53:11;;;;;;;;;;;24.70;71.90;;;;;;6303141;22;19907;-75
2023/03/04 00:55:38;;;;;;;;;;;24.80;73.30;;;;;;6303281;22;19952;-75
2023/03/04 00:58:04;;;;;;;;;;;24.80;74.20;;;;;;6303084;22;20387;-75
2023/03/04 01:00:31;;;;;;;;;;;24.80;71.20;;;;;;6302319;22;19915;-74
2023/03/04 01:02:58;;;;;;;;;;;24.80;71.20;;;;;;6302820;22;20296;-75
2023/03/04 01:05:24;;;;;;;;;;;24.90;72.00;;;;;;6302334;22;20329;-75
2023/03/04 01:07:51;;;;;;;;;;;24.90;72.90;;;;;;6303288;22;19907;-76
2023/03/04 01:10:18;;;;;;;;;;;25.00;70.30;;;;;;6303360;22;19915;-74
2023/03/04 01:12:45;;;;;;;;;;;25.00;71.30;;;;;;6302659;22;19903;-73
2023/03/04 01:15:12;;;;;;;;;;;25.00;70.10;;;;;;6302759;22;19915;-73
2023/03/04 01:17:39;;;;;;;;;;;24.90;69.30;;;;;;6303058;22;19910;-73
2023/03/04 01:20:06;;;;;;;;;;;24.90;69.20;;;;;;6302323;22;19919;-73
2023/03/04 01:22:33;;;;;;;;;;;24.90;67.60;;;;;;6303128;22;19910;-73
2023/03/04 01:25:00;;;;;;;;;;;24.90;69.70;;;;;;6302759;22;20322;-72
2023/03/04 01:27:26;;;;;;;;;;;25.00;68.70;;;;;;6302779;22;19964;-73
2023/03/04 01:29:53;;;;;;;;;;;25.00;70.90;;;;;;6302533;22;19910;-72
2023/03/04 01:32:20;;;;;;;;;;;24.90;69.00;;;;;;6302726;22;19903;-73
2023/03/04 01:34:46;;;;;;;;;;;24.90;66.10;;;;;;6302978;22;20377;-73
2023/03/04 01:37:13;;;;;;;;;;;25.00;69.20;;;;;;6302727;22;19911;-74
2023/03/04 01:39:40;;;;;;;;;;;25.00;68.60;;;;;;6302819;22;19915;-73
2023/03/04 01:42:09;;;;;;;;;;;25.00;69.30;;;;;;6300647;22;19903;-74
2023/03/04 01:44:36;;;;;;;;;;;25.00;68.30;;;;;;6275341;22;19977;-74
2023/03/04 01:47:03;;;;;;;;;;;25.10;67.00;;;;;;6275689;22;20267;-74
2023/03/04 01:49:29;;;;;;;;;;;25.10;67.40;;;;;;6302278;22;19907;-73
2023/03/04 01:51:56;;;;;;;;;;;25.10;68.30;;;;;;6302708;22;20310;-79
2023/03/04 01:54:23;;;;;;;;;;;25.10;65.40;;;;;;6302643;22;19942;-73
2023/03/04 01:56:50;;;;;;;;;;;25.10;66.50;;;;;;6302494;22;19907;-75
2023/03/04 01:59:17;;;;;;;;;;;25.20;67.70;;;;;;6302706;22;19967;-74
2023/03/04 02:01:44;;;;;;;;;;;25.20;69.60;;;;;;6302326;22;20012;-74
2023/03/04 02:04:11;;;;;;;;;;;25.20;67.50;;;;;;6303253;22;19922;-75
2023/03/04 02:06:38;;;;;;;;;;;25.20;68.90;;;;;;6304954;22;19907;-73
2023/03/04 02:09:05;;;;;;;;;;;25.20;67.00;;;;;;6277454;22;19952;-74
2023/03/04 02:11:31;;;;;;;;;;;25.20;67.20;;;;;;6277022;22;19982;-73
2023/03/04 02:13:58;;;;;;;;;;;25.30;67.70;;;;;;6277140;22;19981;-73
2023/03/04 02:16:25;;;;;;;;;;;25.30;66.20;;;;;;6277833;22;19907;-76
2023/03/04 02:18:52;;;;;;;;;;;25.20;66.90;;;;;;6277378;22;19911;-75
2023/03/04 02:21:23;;;;;;;;;;;25.20;67.40;;;;;;6276759;22;19925;-72
2023/03/04 02:24:03;;;;;;;;;;;25.30;65.10;;;;;;6304050;22;19906;-75
2023/03/04 02:26:30;;;;;;;;;;;25.30;66.70;;;;;;6250244;22;20397;-76
2023/03/04 02:28:58;;;;;;;;;;;25.30;68.30;;;;;;6304117;22;19907;-74
2023/03/04 02:31:27;;;;;;;;;;;25.40;67.50;;;;;;6276939;22;19937;-72
2023/03/04 02:33:55;;;;;;;;;;;25.30;66.90;;;;;;6303665;22;19911;-73
2023/03/04 02:36:22;;;;;;;;;;;25.30;68.30;;;;;;6303843;22;19938;-75
2023/03/04 02:38:49;;;;;;;;;;;25.40;67.50;;;;;;6303615;22;19938;-74
2023/03/04 02:41:17;;;;;;;;;;;25.40;66.00;;;;;;6301440;22;19922;-74
2023/03/04 02:43:45;;;;;;;;;;;25.30;67.40;;;;;;6276756;22;20268;-77
2023/03/04 02:46:12;;;;;;;;;;;25.30;64.80;;;;;;6304174;22;19907;-77
2023/03/04 02:48:38;;;;;;;;;;;25.30;66.00;;;;;;6304119;22;19907;-81
2023/03/04 02:51:05;;;;;;;;;;;25.30;66.60;;;;;;6303832;22;19914;-77
2023/03/04 02:53:32;;;;;;;;;;;25.20;65.70;;;;;;6278017;22;19906;-83
2023/03/04 02:55:58;;;;;;;;;;;25.20;66.10;;;;;;6304495;22;19968;-79
2023/03/04 02:58:25;;;;;;;;;;;25.30;66.60;;;;;;6304337;22;19947;-77
2023/03/04 03:00:52;;;;;;;;;;;25.30;65.30;;;;;;6303777;22;19945;-76
2023/03/04 03:03:18;;;;;;;;;;;25.40;65.90;;;;;;6276584;22;19910;-79
2023/03/04 03:05:45;;;;;;;;;;;25.40;67.00;;;;;;6304064;22;19918;-77
2023/03/04 03:08:12;;;;;;;;;;;25.40;66.90;;;;;;6304155;22;19911;-76
2023/03/04 03:10:39;;;;;;;;;;;25.40;65.80;;;;;;6302490;22;19907;-76
2023/03/04 03:13:05;;;;;;;;;;;25.40;66.50;;;;;;6304033;22;20002;-76
2023/03/04 03:15:32;;;;;;;;;;;25.40;65.60;;;;;;6303294;22;19911;-79
2023/03/04 03:17:59;;;;;;;;;;;25.40;64.70;;;;;;6303514;22;19914;-80
2023/03/04 03:20:25;;;;;;;;;;;25.30;64.60;;;;;;6276095;22;19919;-80
2023/03/04 03:22:52;;;;;;;;;;;25.30;65.20;;;;;;6303996;22;20476;-75
2023/03/04 03:25:19;;;;;;;;;;;25.30;63.70;;;;;;6303621;22;19911;-76
2023/03/04 03:27:45;;;;;;;;;;;25.30;63.90;;;;;;6303371;22;19907;-74
2023/03/04 03:30:12;;;;;;;;;;;25.30;65.70;;;;;;6303226;22;19907;-75
2023/03/04 03:32:39;;;;;;;;;;;25.30;64.70;;;;;;6303942;22;19952;-75
2023/03/04 03:35:06;;;;;;;;;;;25.30;67.70;;;;;;6303166;22;19907;-83
2023/03/04 03:37:33;;;;;;;;;;;25.40;67.20;;;;;;6303606;22;20296;-83
2023/03/04 03:39:59;;;;;;;;;;;25.30;67.20;;;;;;6302945;22;19914;-83
2023/03/04 03:42:26;;;;;;;;;;;25.30;66.70;;;;;;6275829;22;20315;-84
2023/03/04 03:44:54;;;;;;;;;;;25.30;64.50;;;;;;6276171;22;20280;-84
2023/03/04 03:47:21;;;;;;;;;;;25.30;66.10;;;;;;6303741;22;19914;-84
2023/03/04 03:49:48;;;;;;;;;;;25.30;66.60;;;;;;6276046;22;19947;-83
2023/03/04 03:52:14;;;;;;;;;;;25.20;64.50;;;;;;6276264;22;19949;-83
2023/03/04 03:54:42;;;;;;;;;;;25.20;64.50;;;;;;6303692;22;19907;-81
2023/03/04 03:57:08;;;;;;;;;;;25.20;66.70;;;;;;6303499;22;19906;-86
2023/03/04 03:59:35;;;;;;;;;;;25.10;67.30;;;;;;6276287;22;19911;-85
2023/03/04 04:02:02;;;;;;;;;;;25.10;66.70;;;;;;6304094;22;20214;-84
2023/03/04 04:04:28;;;;;;;;;;;25.10;66.00;;;;;;6303555;22;19907;-85
2023/03/04 04:06:55;;;;;;;;;;;25.10;65.90;;;;;;6303591;22;20352;-85
2023/03/04 04:09:22;;;;;;;;;;;25.10;65.80;;;;;;6303295;22;19915;-83
2023/03/04 04:11:49;;;;;;;;;;;25.10;66.50;;;;;;6275906;22;19910;-84
2023/03/04 04:14:15;;;;;;;;;;;25.10;68.00;;;;;;6303126;22;19929;-85
2023/03/04 04:16:42;;;;;;;;;;;25.00;66.80;;;;;;6276402;22;19903;-81
2023/03/04 04:19:13;;;;;;;;;;;25.00;65.60;;;;;;6275985;22;19930;-86
2023/03/04 04:21:39;;;;;;;;;;;25.00;67.20;;;;;;6275271;22;20004;-83
2023/03/04 04:24:06;;;;;;;;;;;25.00;67.00;;;;;;6303078;22;20059;-81
2023/03/04 04:26:33;;;;;;;;;;;25.00;66.90;;;;;;6275851;22;19914;-82
2023/03/04 04:28:59;;;;;;;;;;;25.10;67.70;;;;;;6276183;22;19928;-82
2023/03/04 04:31:26;;;;;;;;;;;25.10;67.10;;;;;;6303357;22;19907;-82
2023/03/04 04:33:53;;;;;;;;;;;25.10;67.20;;;;;;6303155;22;19930;-84
2023/03/04 04:36:20;;;;;;;;;;;25.20;68.10;;;;;;6303330;22;20326;-82
2023/03/04 04:38:48;;;;;;;;;;;25.20;68.20;;;;;;6303381;22;19914;-77
2023/03/04 04:41:17;;;;;;;;;;;25.20;66.80;;;;;;6300800;22;19914;-86
2023/03/04 04:43:43;;;;;;;;;;;25.20;67.30;;;;;;6275840;22;19990;-83
2023/03/04 04:46:10;;;;;;;;;;;25.10;66.90;;;;;;6276180;22;19947;-86
2023/03/04 04:48:37;;;;;;;;;;;25.10;66.60;;;;;;6303375;22;19917;-84
2023/03/04 04:51:04;;;;;;;;;;;25.10;68.60;;;;;;6303485;22;19985;-84
2023/03/04 04:53:31;;;;;;;;;;;25.00;66.10;;;;;;6303861;22;20391;-79
2023/03/04 04:55:57;;;;;;;;;;;25.00;66.60;;;;;;6275970;22;19906;-83
2023/03/04 04:58:24;;;;;;;;;;;25.10;67.20;;;;;;6303524;22;19914;-78
2023/03/04 05:00:51;;;;;;;;;;;25.00;65.70;;;;;;6302675;22;19918;-79
2023/03/04 05:03:17;;;;;;;;;;;25.00;66.90;;;;;;6303130;22;19903;-82
2023/03/04 05:05:44;;;;;;;;;;;25.00;66.90;;;;;;6303133;22;19907;-82
2023/03/04 05:08:11;;;;;;;;;;;25.00;67.00;;;;;;6303304;22;19914;-83
2023/03/04 05:10:37;;;;;;;;;;;24.90;66.20;;;;;;6303490;22;20311;-83
2023/03/04 05:13:04;;;;;;;;;;;24.80;66.20;;;;;;6303311;22;20338;-83
2023/03/04 05:15:31;;;;;;;;;;;24.80;66.20;;;;;;6302947;22;19918;-82
2023/03/04 05:17:57;;;;;;;;;;;24.80;65.30;;;;;;6303592;22;19961;-82
2023/03/04 05:20:25;;;;;;;;;;;24.70;65.30;;;;;;6302682;22;19961;-83
2023/03/04 05:22:52;;;;;;;;;;;24.70;65.40;;;;;;6303263;22;19903;-86
2023/03/04 05:25:19;;;;;;;;;;;24.70;65.60;;;;;;6303194;22;19976;-85
2023/03/04 05:27:46;;;;;;;;;;;24.70;66.70;;;;;;6302860;22;19952;-82
2023/03/04 05:30:12;;;;;;;;;;;24.70;67.90;;;;;;6275859;22;19978;-83
2023/03/04 05:32:39;;;;;;;;;;;24.70;65.50;;;;;;6302906;22;20249;-81
2023/03/04 05:35:06;;;;;;;;;;;24.80;64.50;;;;;;6302436;22;19907;-81
2023/03/04 05:37:33;;;;;;;;;;;24.80;64.40;;;;;;6302263;22;19907;-85
2023/03/04 05:39:59;;;;;;;;;;;24.80;63.70;;;;;;6303771;22;19922;-79
2023/03/04 05:42:26;;;;;;;;;;;24.80;63.20;;;;;;6304749;22;19972;-81
2023/03/04 05:44:53;;;;;;;;;;;24.80;63.20;;;;;;6305363;22;19911;-81
2023/03/04 05:47:19;;;;;;;;;;;24.80;63.10;;;;;;6305192;22;20230;-80
2023/03/04 05:49:46;;;;;;;;;;;24.80;63.00;;;;;;6304610;22;19914;-78
2023/03/04 05:52:13;;;;;;;;;;;24.80;63.30;;;;;;6304819;22;20298;-82
2023/03/04 05:54:39;;;;;;;;;;;24.80;64.00;;;;;;6305251;22;19903;-82
2023/03/04 05:57:06;;;;;;;;;;;24.80;64.10;;;;;;6305066;22;19986;-81
2023/03/04 05:59:33;;;;;;;;;;;24.80;64.20;;;;;;6277911;22;20002;-83
2023/03/04 06:02:00;;;;;;;;;;;24.80;65.90;;;;;;6304803;22;20319;-77
2023/03/04 06:04:26;;;;;;;;;;;24.80;66.10;;;;;;6304355;22;20052;-80
2023/03/04 06:06:53;;;;;;;;;;;24.80;66.50;;;;;;6304886;22;20461;-82
2023/03/04 06:09:20;;;;;;;;;;;24.80;66.80;;;;;;6304715;22;20280;-81
2023/03/04 06:11:47;;;;;;;;;;;24.80;66.40;;;;;;6304761;22;19981;-80
2023/03/04 06:14:13;;;;;;;;;;;24.80;66.30;;;;;;6304858;22;20337;-80
2023/03/04 06:16:40;;;;;;;;;;;24.80;66.40;;;;;;6277786;22;19907;-83
2023/03/04 06:19:07;;;;;;;;;;;24.80;66.30;;;;;;6303329;22;20058;-82
2023/03/04 06:21:33;;;;;;;;;;;24.70;65.10;;;;;;6276797;22;19954;-82
2023/03/04 06:24:00;;;;;;;;;;;24.60;65.10;;;;;;6304237;22;19953;-82
2023/03/04 06:26:27;;;;;;;;;;;24.60;65.60;;;;;;6304792;22;19953;-89
2023/03/04 06:28:55;;;;;;;;;;;24.50;66.60;;;;;;6303545;22;19903;-83
2023/03/04 06:31:22;;;;;;;;;;;24.40;67.20;;;;;;6304018;22;19906;-84
2023/03/04 06:33:49;;;;;;;;;;;24.40;67.20;;;;;;6303664;22;20237;-86
2023/03/04 06:36:16;;;;;;;;;;;24.40;66.70;;;;;;6305003;22;20217;-84
2023/03/04 06:38:42;;;;;;;;;;;24.50;66.50;;;;;;6304820;22;19946;-84
2023/03/04 06:41:09;;;;;;;;;;;24.50;67.20;;;;;;6249164;22;19918;-84
2023/03/04 06:43:36;;;;;;;;;;;24.50;67.40;;;;;;6304177;22;19938;-84
2023/03/04 06:46:03;;;;;;;;;;;24.60;67.30;;;;;;6304506;22;20203;-81
2023/03/04 06:48:30;;;;;;;;;;;24.50;67.90;;;;;;6304172;22;19907;-84
2023/03/04 06:50:56;;;;;;;;;;;24.50;67.80;;;;;;6304767;22;19910;-83
2023/03/04 06:53:23;;;;;;;;;;;24.50;67.00;;;;;;6304612;22;19909;-83
2023/03/04 06:55:50;;;;;;;;;;;24.50;66.80;;;;;;6304030;22;19990;-80
2023/03/04 06:58:17;;;;;;;;;;;24.50;67.40;;;;;;6305235;22;19906;-81
2023/03/04 07:00:44;;;;;;;;;;;24.50;67.80;;;;;;6277251;22;19915;-80
2023/03/04 07:03:11;;;;;;;;;;;24.40;66.60;;;;;;6304501;22;19910;-78
2023/03/04 07:05:38;;;;;;;;;;;24.40;65.80;;;;;;6276940;22;19918;-80
2023/03/04 07:08:06;;;;;;;;;;;24.40;66.40;;;;;;6302373;22;20285;-81
2023/03/04 07:10:32;;;;;;;;;;;24.30;66.10;;;;;;6304438;22;19948;-81
2023/03/04 07:12:59;;;;;;;;;;;24.30;66.50;;;;;;6304102;22;19914;-79
2023/03/04 07:15:26;;;;;;;;;;;24.30;67.20;;;;;;6303854;22;19903;-78
2023/03/04 07:17:53;;;;;;;;;;;24.20;66.30;;;;;;6276815;22;19907;-79
2023/03/04 07:20:19;;;;;;;;;;;24.20;66.80;;;;;;6304382;22;20379;-79
2023/03/04 07:22:46;;;;;;;;;;;24.20;67.60;;;;;;6304091;22;19953;-78
2023/03/04 07:25:13;;;;;;;;;;;24.10;68.10;;;;;;6303905;22;20266;-78
2023/03/04 07:27:40;;;;;;;;;;;24.10;68.00;;;;;;6303566;22;19907;-78
2023/03/04 07:30:07;;;;;;;;;;;24.10;68.60;;;;;;6304519;22;19915;-79
2023/03/04 07:32:34;;;;;;;;;;;24.00;68.40;;;;;;6304266;22;20330;-79
2023/03/04 07:35:02;;;;;;;;;;;24.00;68.90;;;;;;6303976;22;19903;-79
2023/03/04 07:37:29;;;;;;;;;;;24.00;69.60;;;;;;6303492;22;19981;-80
2023/03/04 07:39:56;;;;;;;;;;;24.10;70.10;;;;;;6303532;22;20246;-80
2023/03/04 07:42:22;;;;;;;;;;;24.00;70.70;;;;;;6301172;22;19911;-76
2023/03/04 07:44:49;;;;;;;;;;;24.00;70.10;;;;;;6303877;22;19953;-79
2023/03/04 07:47:16;;;;;;;;;;;24.00;70.30;;;;;;6303485;22;19907;-77
2023/03/04 07:49:42;;;;;;;;;;;24.00;70.10;;;;;;6303774;22;19911;-80
2023/03/04 07:52:09;;;;;;;;;;;23.90;69.80;;;;;;6303309;22;19933;-79
2023/03/04 07:54:36;;;;;;;;;;;23.90;70.60;;;;;;6303920;22;20337;-79
2023/03/04 07:57:03;;;;;;;;;;;23.90;70.80;;;;;;6304516;22;20324;-81
2023/03/04 07:59:29;;;;;;;;;;;23.90;71.70;;;;;;6303510;22;19911;-80
2023/03/04 08:01:56;;;;;;;;;;;23.80;71.50;;;;;;6303893;22;19930;-77
2023/03/04 08:04:23;;;;;;;;;;;23.90;71.40;;;;;;6302740;22;19907;-77
2023/03/04 08:06:49;;;;;;;;;;;23.80;71.80;;;;;;6303261;22;20384;-79
2023/03/04 08:09:16;;;;;;;;;;;23.80;72.00;;;;;;6303260;22;19914;-78
2023/03/04 08:11:43;;;;;;;;;;;23.80;72.30;;;;;;6302933;22;19910;-76
2023/03/04 08:14:11;;;;;;;;;;;23.80;71.90;;;;;;6250551;22;20286;-76
2023/03/04 08:16:37;;;;;;;;;;;23.80;71.80;;;;;;6275838;22;19903;-81
2023/03/04 08:19:04;;;;;;;;;;;23.80;72.00;;;;;;6304293;22;20289;-78
2023/03/04 08:21:31;;;;;;;;;;;23.80;72.30;;;;;;6303303;22;19919;-77
2023/03/04 08:24:00;;;;;;;;;;;23.80;72.60;;;;;;6303488;22;19911;-78
2023/03/04 08:26:28;;;;;;;;;;;23.80;72.50;;;;;;6303239;22;19911;-77
2023/03/04 08:28:55;;;;;;;;;;;23.80;72.70;;;;;;6303170;22;19910;-77
2023/03/04 08:31:22;;;;;;;;;;;23.70;73.30;;;;;;6303792;22;19910;-78
2023/03/04 08:33:50;;;;;;;;;;;23.70;73.30;;;;;;6303370;22;19903;-78
2023/03/04 08:36:16;;;;;;;;;;;23.70;73.30;;;;;;6302612;22;19907;-80
2023/03/04 08:38:43;;;;;;;;;;;23.70;73.70;;;;;;6303531;22;20289;-78
2023/03/04 08:41:10;;;;;;;;;;;23.70;73.70;;;;;;6299943;22;19915;-78
2023/03/04 08:43:36;;;;;;;;;;;23.70;73.40;;;;;;6303380;22;19903;-77
2023/03/04 08:46:03;;;;;;;;;;;23.60;73.50;;;;;;6303113;22;20254;-77
2023/03/04 08:48:30;;;;;;;;;;;23.70;73.70;;;;;;6302756;22;19986;-79
2023/03/04 08:50:57;;;;;;;;;;;23.60;73.50;;;;;;6303536;22;20215;-78
2023/03/04 08:53:24;;;;;;;;;;;23.60;73.40;;;;;;6303205;22;19983;-75
2023/03/04 08:55:51;;;;;;;;;;;23.60;72.90;;;;;;6303071;22;19914;-72
2023/03/04 08:58:18;;;;;;;;;;;23.60;72.30;;;;;;6302979;22;19913;-73
2023/03/04 09:00:47;;;;;;;;;;;23.60;72.20;;;;;;6302912;22;19915;-73
2023/03/04 09:03:14;;;;;;;;;;;23.60;72.70;;;;;;6302853;22;19903;-73
2023/03/04 09:05:41;;;;;;;;;;;23.60;72.70;;;;;;6302390;22;20281;-72
2023/03/04 09:08:07;;;;;;;;;;;23.60;73.20;;;;;;6302843;22;19907;-72
2023/03/04 09:10:34;;;;;;;;;;;23.50;72.40;;;;;;6303072;22;19902;-73
2023/03/04 09:13:01;;;;;;;;;;;23.50;72.30;;;;;;6276128;22;19907;-72
2023/03/04 09:15:27;;;;;;;;;;;23.50;72.40;;;;;;6299753;22;20184;-71
2023/03/04 09:17:54;;;;;;;;;;;23.50;72.20;;;;;;6305072;22;19945;-73
2023/03/04 09:20:22;;;;;;;;;;;23.50;72.20;;;;;;6305087;22;20334;-73
2023/03/04 09:22:48;;;;;;;;;;;23.50;71.70;;;;;;6305303;22;19906;-72
2023/03/04 09:25:15;;;;;;;;;;;23.50;72.00;;;;;;6304992;22;20278;-73
2023/03/04 09:27:42;;;;;;;;;;;23.40;72.50;;;;;;6305095;22;19968;-75
2023/03/04 09:30:09;;;;;;;;;;;23.40;72.90;;;;;;6305090;22;19910;-72
2023/03/04 09:32:36;;;;;;;;;;;23.40;72.60;;;;;;6305451;22;19907;-72
2023/03/04 09:35:06;;;;;;;;;;;23.30;72.20;;;;;;6303603;22;20452;-74
2023/03/04 09:37:33;;;;;;;;;;;23.40;72.20;;;;;;6304687;22;19907;-73
2023/03/04 09:40:00;;;;;;;;;;;23.40;72.40;;;;;;6303469;22;19907;-73
2023/03/04 09:42:28;;;;;;;;;;;23.40;72.50;;;;;;6304913;22;19907;-72
2023/03/04 09:44:54;;;;;;;;;;;23.40;72.40;;;;;;6277604;22;19938;-72
2023/03/04 09:47:21;;;;;;;;;;;23.40;72.90;;;;;;6305056;22;19907;-73
2023/03/04 09:49:52;;;;;;;;;;;23.40;72.70;;;;;;6277210;22;19911;-72
2023/03/04 09:52:30;;;;;;;;;;;23.40;72.60;;;;;;6304642;22;19903;-73
2023/03/04 09:55:00;;;;;;;;;;;23.30;72.90;;;;;;6304597;22;19910;-75
2023/03/04 09:57:30;;;;;;;;;;;23.30;73.30;;;;;;6305026;22;19903;-76
2023/03/04 09:59:59;;;;;;;;;;;23.30;73.60;;;;;;6304454;22;19914;-74
2023/03/04 10:02:40;;;;;;;;;;;23.30;74.10;;;;;;6304733;22;19918;-72
2023/03/04 10:05:07;;;;;;;;;;;23.30;74.30;;;;;;6277427;22;20017;-71
2023/03/04 10:07:35;;;;;;;;;;;23.30;74.40;;;;;;6304874;22;19956;-71
2023/03/04 10:10:03;;;;;;;;;;;23.30;74.60;;;;;;6304914;22;19942;-72
2023/03/04 10:12:31;;;;;;;;;;;23.40;75.00;;;;;;6304547;22;19907;-73
2023/03/04 10:15:02;;;;;;;;;;;23.40;75.00;;;;;;6304638;22;19907;-73
2023/03/04 10:17:32;;;;;;;;;;;23.30;75.30;;;;;;6304090;22;19950;-73
2023/03/04 10:20:01;;;;;;;;;;;23.30;75.70;;;;;;6303978;22;19925;-76
2023/03/04 10:22:37;;;;;;;;;;;23.30;75.80;;;;;;6277695;22;19918;-73
2023/03/04 10:25:19;;;;;;;;;;;23.30;76.00;;;;;;6303680;22;19911;-73
2023/03/04 10:28:01;;;;;;;;;;;23.30;75.10;;;;;;6304435;22;19903;-72
2023/03/04 10:30:30;;;;;;;;;;;23.30;75.30;;;;;;6277647;22;19907;-72
2023/03/04 10:32:57;;;;;;;;;;;23.30;75.50;;;;;;6304899;22;20244;-73
2023/03/04 10:35:26;;;;;;;;;;;23.30;75.40;;;;;;6304507;22;19907;-74
2023/03/04 10:37:53;;;;;;;;;;;23.30;75.50;;;;;;6304575;22;19910;-72
2023/03/04 10:40:23;;;;;;;;;;;23.30;75.30;;;;;;6302138;22;20436;-72
2023/03/04 10:42:50;;;;;;;;;;;23.30;75.20;;;;;;6304815;22;19950;-74
2023/03/04 10:45:21;;;;;;;;;;;23.30;75.60;;;;;;6304543;22;19907;-74
2023/03/04 10:47:54;;;;;;;;;;;23.20;75.70;;;;;;6304843;22;19911;-73
2023/03/04 10:50:23;;;;;;;;;;;23.30;75.40;;;;;;6304340;22;20001;-73
2023/03/04 10:52:54;;;;;;;;;;;23.30;75.80;;;;;;6304487;22;19981;-73
2023/03/04 10:55:25;;;;;;;;;;;23.30;75.70;;;;;;6303916;22;19910;-72
2023/03/04 10:57:56;;;;;;;;;;;23.20;76.10;;;;;;6304474;22;19914;-73
2023/03/04 11:00:22;;;;;;;;;;;23.30;76.10;;;;;;6304236;22;20238;-73
2023/03/04 11:02:49;;;;;;;;;;;23.20;75.80;;;;;;6304215;22;19907;-73
2023/03/04 11:05:17;;;;;;;;;;;23.20;76.20;;;;;;6304271;22;19903;-73
2023/03/04 11:07:45;;;;;;;;;;;23.20;75.80;;;;;;6304067;22;19985;-73
2023/03/04 11:10:15;;;;;;;;;;;23.20;75.50;;;;;;6304512;22;19911;-73
2023/03/04 11:12:41;;;;;;;;;;;23.20;75.60;;;;;;6304086;22;19968;-73
2023/03/04 11:15:27;;;;;;;;;;;23.20;75.30;;;;;;6276480;22;19907;-73
2023/03/04 11:18:04;;;;;;;;;;;23.20;75.10;;;;;;6276273;22;19930;-72
2023/03/04 11:20:30;;;;;;;;;;;23.20;75.40;;;;;;6276652;22;20345;-73
2023/03/04 11:22:59;;;;;;;;;;;23.20;74.90;;;;;;6304684;22;19903;-73
2023/03/04 11:25:27;;;;;;;;;;;23.20;75.00;;;;;;6254462;22;19952;-72
2023/03/04 11:27:57;;;;;;;;;;;23.20;75.10;;;;;;6306381;22;19983;-72
2023/03/04 11:30:24;;;;;;;;;;;23.20;75.20;;;;;;6279865;22;19985;-72
2023/03/04 11:32:51;;;;;;;;;;;23.10;75.20;;;;;;6307685;22;19942;-72
2023/03/04 11:35:21;;;;;;;;;;;23.00;75.20;;;;;;6307349;22;19925;-72
2023/03/04 11:38:00;;;;;;;;;;;23.00;75.30;;;;;;6279892;22;19949;-72
2023/03/04 11:40:47;;;;;;;;;;;23.00;74.90;;;;;;6306939;22;19911;-72
2023/03/04 11:43:18;;;;;;;;;;;23.00;75.50;;;;;;6280924;22;19907;-72
2023/03/04 11:45:52;;;;;;;;;;;23.00;75.30;;;;;;6280258;22;20367;-72
2023/03/04 11:48:19;;;;;;;;;;;23.00;75.80;;;;;;6280235;22;19903;-72
2023/03/04 11:51:04;;;;;;;;;;;22.90;75.40;;;;;;6306582;22;19903;-72
2023/03/04 11:53:31;;;;;;;;;;;23.00;75.40;;;;;;6280353;22;19947;-71
2023/03/04 11:56:16;;;;;;;;;;;22.90;75.10;;;;;;6279612;22;19903;-71
2023/03/04 11:58:52;;;;;;;;;;;22.90;75.30;;;;;;6306782;22;19903;-72
2023/03/04 12:01:27;;;;;;;;;;;22.90;75.40;;;;;;6307232;22;20269;-72
2023/03/04 12:04:03;;;;;;;;;;;22.90;75.50;;;;;;6279248;22;19914;-71
2023/03/04 12:06:48;;;;;;;;;;;22.90;75.50;;;;;;6307307;22;19930;-72
2023/03/04 12:09:15;;;;;;;;;;;22.80;75.70;;;;;;6307058;22;19982;-71
2023/03/04 12:11:50;;;;;;;;;;;22.90;75.90;;;;;;6307134;22;19914;-71
2023/03/04 13:18:32;;;;;;;;;;;22.60;78.40;;;;;;6316648;22;19921;-70
2023/03/04 13:21:17;;;;;;;;;;;22.50;78.50;;;;;;6306316;22;19919;-71
2023/03/04 13:23:43;;;;;;;;;;;22.60;78.50;;;;;;6305974;22;19914;-71
2023/03/04 13:26:17;;;;;;;;;;;22.60;78.40;;;;;;6306102;22;20211;-71
2023/03/04 13:28:43;;;;;;;;;;;22.50;78.50;;;;;;6306107;22;19909;-71
2023/03/04 13:31:10;;;;;;;;;;;22.50;78.80;;;;;;6306459;22;19903;-71
2023/03/04 13:33:37;;;;;;;;;;;22.50;79.00;;;;;;6305784;22;19903;-71
2023/03/04 13:36:05;;;;;;;;;;;22.40;79.10;;;;;;6306126;22;20322;-71
2023/03/04 13:38:36;;;;;;;;;;;22.40;79.20;;;;;;6279199;22;19956;-71
2023/03/04 13:41:05;;;;;;;;;;;22.40;79.40;;;;;;6306120;22;19989;-71
2023/03/04 13:43:41;;;;;;;;;;;22.50;79.40;;;;;;6305994;22;19986;-71
2023/03/04 13:46:17;;;;;;;;;;;22.50;79.20;;;;;;6306575;22;19903;-71
2023/03/04 13:48:50;;;;;;;;;;;22.40;79.40;;;;;;6305993;22;19903;-71
2023/03/04 13:51:17;;;;;;;;;;;22.40;79.40;;;;;;6306228;22;20207;-71
2023/03/04 13:53:46;;;;;;;;;;;22.40;79.50;;;;;;6306152;22;20329;-71
2023/03/04 13:56:22;;;;;;;;;;;22.30;79.60;;;;;;6306498;22;19903;-71
2023/03/04 13:59:07;;;;;;;;;;;22.40;79.70;;;;;;6306200;22;19909;-72
2023/03/04 14:01:34;;;;;;;;;;;22.30;79.80;;;;;;6308023;22;19911;-71
2023/03/04 14:04:02;;;;;;;;;;;22.30;80.30;;;;;;6280513;22;20275;-71
2023/03/04 14:06:31;;;;;;;;;;;22.20;80.60;;;;;;6281040;22;20203;-71
2023/03/04 14:08:58;;;;;;;;;;;22.20;80.90;;;;;;6308452;22;19903;-71
2023/03/04 14:11:37;;;;;;;;;;;22.20;81.10;;;;;;6281075;22;20337;-71
2023/03/04 14:14:04;;;;;;;;;;;22.10;81.40;;;;;;6281045;22;19903;-71
2023/03/04 14:16:31;;;;;;;;;;;22.10;81.70;;;;;;6308413;22;20242;-71
2023/03/04 14:19:02;;;;;;;;;;;22.10;82.10;;;;;;6280790;22;19941;-71
2023/03/04 14:21:29;;;;;;;;;;;22.10;82.40;;;;;;6308088;22;20395;-71
2023/03/04 14:24:00;;;;;;;;;;;22.00;82.70;;;;;;6280914;22;19903;-71
2023/03/04 14:26:29;;;;;;;;;;;22.00;83.00;;;;;;6308141;22;19941;-71
2023/03/04 14:28:58;;;;;;;;;;;22.00;83.20;;;;;;6307382;22;19914;-72
2023/03/04 14:31:27;;;;;;;;;;;21.90;83.20;;;;;;6307555;22;19915;-71
2023/03/04 14:34:00;;;;;;;;;;;21.90;83.00;;;;;;6307279;22;19902;-71
2023/03/04 14:36:32;;;;;;;;;;;21.90;82.80;;;;;;6282234;22;19910;-71
2023/03/04 14:38:59;;;;;;;;;;;21.80;82.80;;;;;;6280691;22;20381;-71
2023/03/04 14:41:33;;;;;;;;;;;21.80;82.80;;;;;;6307536;22;19911;-71
2023/03/04 14:44:18;;;;;;;;;;;21.80;82.60;;;;;;6280347;22;20367;-71
2023/03/04 14:46:48;;;;;;;;;;;21.80;82.30;;;;;;6308026;22;19903;-71
2023/03/04 14:49:15;;;;;;;;;;;21.80;82.70;;;;;;6308128;22;19907;-71
2023/03/04 14:51:44;;;;;;;;;;;21.80;82.70;;;;;;6307308;22;19911;-71
2023/03/04 14:54:43;;;;;;;;;;;21.70;82.50;;;;;;6307458;22;20262;-71
2023/03/04 14:57:21;;;;;;;;;;;21.70;82.70;;;;;;6223249;22;19910;-71
2023/03/04 14:59:47;;;;;;;;;;;21.70;82.90;;;;;;6307362;22;19934;-72
2023/03/04 15:02:17;;;;;;;;;;;21.70;82.80;;;;;;6307739;22;19903;-71
2023/03/04 15:04:45;;;;;;;;;;;21.60;83.00;;;;;;6307205;22;19914;-71
2023/03/04 15:07:15;;;;;;;;;;;21.60;82.90;;;;;;6280212;22;19903;-71
2023/03/04 15:09:42;;;;;;;;;;;21.60;83.00;;;;;;6280552;22;19903;-72
2023/03/04 15:12:09;;;;;;;;;;;21.60;83.00;;;;;;6280455;22;19952;-72
2023/03/04 15:14:42;;;;;;;;;;;21.50;83.00;;;;;;6280499;22;19903;-71
2023/03/04 15:17:25;;;;;;;;;;;21.60;83.00;;;;;;6307550;22;19903;-72
2023/03/04 15:20:07;;;;;;;;;;;21.60;83.10;;;;;;6307278;22;19922;-71
2023/03/04 15:22:57;;;;;;;;;;;21.60;83.00;;;;;;6305912;22;19907;-71
2023/03/04 15:25:24;;;;;;;;;;;21.60;83.00;;;;;;6287215;22;19903;-71
2023/03/04 15:27:52;;;;;;;;;;;21.60;82.60;;;;;;6307141;22;19903;-71